Time;durP1;ratioP1;P1;durP2;ratioP2;P2;SDS_P1;SDS_P2;PMS_P1;PMS_P2;Temp;Humidity;BMP_temperature;BMP_pressure;BME280_temperature;BME280_humidity;BME280_pressure;Samples;Min_cycle;Max_cycle;Signal;HPM_P1;HPM_P2
2024/01/18 00:02:15;;;;;;;27.47;17.37;;;;;;;;;;2613383;54;20398;-75
2024/01/18 00:07:45;;;;;;;22.47;17.37;;;;;;;;;;2613113;54;20383;-75
2024/01/18 00:13:15;;;;;;;19.63;16.53;;;;;;;;;;2613163;31;20871;-76
2024/01/18 00:18:45;;;;;;;22.73;17.90;;;;;;;;;;2613432;54;20469;-76
2024/01/18 00:24:15;;;;;;;19.10;15.90;;;;;;;;;;2612777;54;20434;-76
2024/01/18 00:29:44;;;;;;;23.53;18.00;;;;;;;;;;2613733;54;20346;-79
2024/01/18 00:35:14;;;;;;;22.03;18.00;;;;;;;;;;2614806;54;20368;-78
2024/01/18 00:40:44;;;;;;;28.93;18.03;;;;;;;;;;2614295;54;20391;-79
2024/01/18 00:46:16;;;;;;;25.77;20.07;;;;;;;;;;2614224;54;20395;-79
2024/01/18 00:51:46;;;;;;;24.67;17.43;;;;;;;;;;2613955;54;20374;-79
2024/01/18 00:57:16;;;;;;;22.60;19.60;;;;;;;;;;2614171;54;20404;-78
2024/01/18 01:02:45;;;;;;;27.40;19.33;;;;;;;;;;2613195;54;20374;-77
2024/01/18 01:08:16;;;;;;;22.50;16.57;;;;;;;;;;2613406;54;20374;-77
2024/01/18 01:13:46;;;;;;;23.50;18.40;;;;;;;;;;2613211;54;20391;-77
2024/01/18 01:19:15;;;;;;;24.60;18.63;;;;;;;;;;2613360;54;20414;-78
2024/01/18 01:34:12;;;;;;;19.07;16.00;;;;;;;;;;2613145;54;20379;-78
2024/01/18 01:39:41;;;;;;;29.30;19.07;;;;;;;;;;2612631;54;20362;-77
2024/01/18 01:45:10;;;;;;;21.37;17.70;;;;;;;;;;2612540;54;20487;-79
2024/01/18 01:50:40;;;;;;;28.83;20.00;;;;;;;;;;2613217;39;20782;-77
2024/01/18 01:56:09;;;;;;;23.80;17.90;;;;;;;;;;2611822;54;20366;-76
2024/01/18 02:01:40;;;;;;;26.03;19.90;;;;;;;;;;2614540;46;20393;-79
2024/01/18 02:07:11;;;;;;;24.40;18.27;;;;;;;;;;2615392;54;20358;-75
2024/01/18 02:12:42;;;;;;;24.23;20.07;;;;;;;;;;2615951;54;21009;-79
2024/01/18 02:18:11;;;;;;;28.33;20.00;;;;;;;;;;2615895;54;20363;-80
2024/01/18 02:23:46;;;;;;;28.03;20.17;;;;;;;;;;2615841;54;20387;-79
2024/01/18 02:32:57;;;;;;;40.73;21.03;;;;;;;;;;2617027;54;20398;-78
2024/01/18 02:38:27;;;;;;;27.20;19.13;;;;;;;;;;2616817;54;20447;-79
2024/01/18 02:43:57;;;;;;;26.30;20.80;;;;;;;;;;2616269;54;20535;-78
2024/01/18 02:49:27;;;;;;;24.87;18.20;;;;;;;;;;2617157;54;20387;-78
2024/01/18 02:54:56;;;;;;;23.57;18.23;;;;;;;;;;2617158;54;20403;-80
2024/01/18 03:00:28;;;;;;;32.10;20.80;;;;;;;;;;2616778;54;20371;-79
2024/01/18 03:05:58;;;;;;;23.77;20.13;;;;;;;;;;2615332;54;20379;-80
2024/01/18 03:11:28;;;;;;;28.00;20.03;;;;;;;;;;2617448;54;20394;-79
2024/01/18 03:16:58;;;;;;;33.97;21.67;;;;;;;;;;2616342;54;20370;-78
2024/01/18 03:22:28;;;;;;;26.80;20.27;;;;;;;;;;2621988;54;20414;-83
2024/01/18 03:27:59;;;;;;;30.43;21.03;;;;;;;;;;2620813;54;20426;-79
2024/01/18 03:33:29;;;;;;;29.17;19.23;;;;;;;;;;2619930;54;20451;-80
2024/01/18 03:38:58;;;;;;;32.67;21.30;;;;;;;;;;2616405;54;20392;-76
2024/01/18 03:44:28;;;;;;;29.33;20.13;;;;;;;;;;2614551;54;20487;-76
2024/01/18 03:49:58;;;;;;;27.23;20.73;;;;;;;;;;2613552;54;20394;-75
2024/01/18 03:55:28;;;;;;;25.67;20.60;;;;;;;;;;2614376;39;20938;-76
2024/01/18 04:00:58;;;;;;;29.37;21.47;;;;;;;;;;2614366;54;20394;-75
2024/01/18 04:06:27;;;;;;;29.97;21.30;;;;;;;;;;2613544;54;20412;-76
2024/01/18 04:09:12;;;;;;;24.93;19.70;;;;;;;;;;2612861;47;20403;-76
2024/01/18 04:11:38;;;;;;;24.57;20.63;;;;;;;;;;2612913;47;20475;-78
2024/01/18 04:17:08;;;;;;;24.77;18.43;;;;;;;;;;2614169;54;20490;-76
2024/01/18 04:22:39;;;;;;;31.23;20.40;;;;;;;;;;2613878;54;20394;-75
2024/01/18 04:28:09;;;;;;;29.60;21.90;;;;;;;;;;2614735;54;20395;-78
2024/01/18 04:37:13;;;;;;;30.13;19.97;;;;;;;;;;2616168;54;20407;-79
2024/01/18 04:42:42;;;;;;;25.93;20.97;;;;;;;;;;2613931;54;20415;-76
2024/01/18 04:48:12;;;;;;;24.80;18.83;;;;;;;;;;2614530;54;20398;-79
2024/01/18 04:53:42;;;;;;;29.27;21.27;;;;;;;;;;2616011;54;20393;-79
2024/01/18 04:59:12;;;;;;;32.17;21.73;;;;;;;;;;2615134;54;20409;-78
2024/01/18 05:04:41;;;;;;;29.23;19.57;;;;;;;;;;2613256;54;20415;-78
2024/01/18 05:10:11;;;;;;;31.33;21.53;;;;;;;;;;2614032;54;20362;-79
2024/01/18 05:15:41;;;;;;;23.67;19.33;;;;;;;;;;2615018;54;21106;-79
2024/01/18 05:21:11;;;;;;;27.90;20.30;;;;;;;;;;2615020;54;20403;-79
2024/01/18 05:26:40;;;;;;;24.77;19.77;;;;;;;;;;2613811;54;20483;-78
2024/01/18 05:32:10;;;;;;;27.03;21.03;;;;;;;;;;2613260;39;20762;-77
2024/01/18 05:37:40;;;;;;;24.00;19.47;;;;;;;;;;2613165;54;20386;-78
2024/01/18 05:43:09;;;;;;;27.30;20.47;;;;;;;;;;2612703;54;20932;-79
2024/01/18 05:48:39;;;;;;;25.87;21.23;;;;;;;;;;2613243;54;21030;-77
2024/01/18 05:54:09;;;;;;;26.23;20.90;;;;;;;;;;2612912;54;20374;-78
2024/01/18 05:59:39;;;;;;;28.50;20.27;;;;;;;;;;2612871;54;20434;-78
2024/01/18 06:05:09;;;;;;;25.33;20.07;;;;;;;;;;2612740;54;20370;-77
2024/01/18 06:10:39;;;;;;;26.30;21.00;;;;;;;;;;2612726;54;20399;-79
2024/01/18 06:16:11;;;;;;;27.83;21.83;;;;;;;;;;2613283;39;20787;-78
2024/01/18 06:21:41;;;;;;;26.57;22.03;;;;;;;;;;2615895;54;20379;-78
2024/01/18 06:27:11;;;;;;;30.77;22.70;;;;;;;;;;2615235;54;20455;-79
2024/01/18 06:32:41;;;;;;;24.40;21.13;;;;;;;;;;2615184;54;20528;-79
2024/01/18 06:38:11;;;;;;;24.57;19.97;;;;;;;;;;2615215;54;20414;-78
2024/01/18 06:43:42;;;;;;;26.60;20.90;;;;;;;;;;2614110;54;20406;-80
2024/01/18 06:49:11;;;;;;;36.70;23.73;;;;;;;;;;2613079;54;21430;-79
2024/01/18 06:54:44;;;;;;;29.30;23.17;;;;;;;;;;2617069;54;20391;-79
2024/01/18 07:00:15;;;;;;;28.63;20.40;;;;;;;;;;2615579;54;20406;-80
2024/01/18 07:05:44;;;;;;;28.67;22.40;;;;;;;;;;2615306;54;20414;-78
2024/01/18 07:11:14;;;;;;;28.13;20.67;;;;;;;;;;2614381;54;20378;-78
2024/01/18 07:16:44;;;;;;;27.33;21.63;;;;;;;;;;2616504;54;20479;-79
2024/01/18 07:22:14;;;;;;;29.43;22.50;;;;;;;;;;2614792;54;20503;-78
2024/01/18 07:27:43;;;;;;;43.43;22.43;;;;;;;;;;2616481;54;20362;-78
2024/01/18 07:39:21;;;;;;;36.53;26.53;;;;;;;;;;2613911;54;20354;-75
2024/01/18 07:44:50;;;;;;;32.00;22.60;;;;;;;;;;2613294;54;20383;-75
2024/01/18 07:50:20;;;;;;;31.90;24.23;;;;;;;;;;2612006;54;20342;-76
2024/01/18 07:55:50;;;;;;;29.40;22.20;;;;;;;;;;2612613;54;20490;-76
2024/01/18 08:01:20;;;;;;;35.23;22.17;;;;;;;;;;2612290;54;20393;-75
2024/01/18 08:06:50;;;;;;;39.67;24.73;;;;;;;;;;2612659;39;20863;-76
2024/01/18 08:12:19;;;;;;;37.07;25.00;;;;;;;;;;2612536;54;20408;-75
2024/01/18 08:15:04;;;;;;;34.43;24.60;;;;;;;;;;2613045;39;20818;-75
2024/01/18 08:17:30;;;;;;;38.77;25.53;;;;;;;;;;2612089;54;20402;-76
2024/01/18 08:23:00;;;;;;;40.20;28.10;;;;;;;;;;2613106;54;20362;-75
2024/01/18 08:28:32;;;;;;;48.43;28.97;;;;;;;;;;2612116;54;20398;-79
2024/01/18 08:37:37;;;;;;;42.30;30.27;;;;;;;;;;2613109;54;20354;-77
2024/01/18 08:43:07;;;;;;;33.13;25.77;;;;;;;;;;2612354;54;20374;-73
2024/01/18 08:48:37;;;;;;;35.47;26.97;;;;;;;;;;2612863;39;20859;-76
2024/01/18 08:54:07;;;;;;;38.13;28.33;;;;;;;;;;2612035;54;21232;-75
2024/01/18 08:59:37;;;;;;;39.60;30.67;;;;;;;;;;2612647;54;20410;-75
2024/01/18 09:05:07;;;;;;;38.07;29.27;;;;;;;;;;2612233;54;20901;-79
2024/01/18 09:10:37;;;;;;;37.80;28.40;;;;;;;;;;2614418;54;20379;-78
2024/01/18 09:16:07;;;;;;;41.03;30.57;;;;;;;;;;2613003;54;20450;-78
2024/01/18 09:21:44;;;;;;;37.97;29.47;;;;;;;;;;2611912;54;20901;-77
2024/01/18 09:27:14;;;;;;;36.30;29.90;;;;;;;;;;2612573;54;20402;-78
2024/01/18 09:32:44;;;;;;;40.90;28.83;;;;;;;;;;2612675;54;20471;-79
2024/01/18 09:38:14;;;;;;;39.13;28.00;;;;;;;;;;2612174;54;20446;-78
2024/01/18 09:43:44;;;;;;;40.53;29.40;;;;;;;;;;2613090;54;20407;-74
2024/01/18 09:49:14;;;;;;;38.27;27.90;;;;;;;;;;2612949;39;20758;-78
2024/01/18 09:54:44;;;;;;;41.97;28.80;;;;;;;;;;2612828;54;20479;-77
2024/01/18 09:57:22;;;;;;;33.87;26.97;;;;;;;;;;2612594;54;20494;-78
2024/01/18 09:59:49;;;;;;;38.50;29.80;;;;;;;;;;2612480;54;20471;-78
2024/01/18 10:05:19;;;;;;;35.93;25.80;;;;;;;;;;2614185;39;20844;-79
2024/01/18 10:10:49;;;;;;;31.00;26.27;;;;;;;;;;2613047;54;20392;-80
2024/01/18 10:16:28;;;;;;;31.37;28.27;;;;;;;;;;2613282;54;20380;-76
2024/01/18 10:21:58;;;;;;;32.13;28.70;;;;;;;;;;2613526;54;20463;-76
2024/01/18 10:27:29;;;;;;;31.37;27.27;;;;;;;;;;2613753;54;20390;-74
2024/01/18 10:33:00;;;;;;;35.90;28.43;;;;;;;;;;2613112;54;20400;-76
2024/01/18 10:38:30;;;;;;;29.43;26.50;;;;;;;;;;2612811;54;20365;-76
2024/01/18 10:44:00;;;;;;;29.20;26.03;;;;;;;;;;2614270;54;20518;-77
2024/01/18 10:49:33;;;;;;;27.10;23.70;;;;;;;;;;2614201;54;20455;-79
2024/01/18 10:55:04;;;;;;;24.10;20.67;;;;;;;;;;2614177;54;20413;-77
2024/01/18 11:00:33;;;;;;;22.97;20.50;;;;;;;;;;2613411;54;20355;-78
2024/01/18 11:06:09;;;;;;;23.67;19.53;;;;;;;;;;2614088;54;20383;-76
2024/01/18 11:11:39;;;;;;;30.00;17.47;;;;;;;;;;2613824;54;20391;-75
2024/01/18 11:17:13;;;;;;;18.27;16.00;;;;;;;;;;2614015;54;20963;-74
2024/01/18 11:22:42;;;;;;;16.70;14.87;;;;;;;;;;2613849;54;20424;-75
2024/01/18 11:37:38;;;;;;;18.23;14.00;;;;;;;;;;2614072;54;21104;-75
2024/01/18 11:43:08;;;;;;;13.50;12.20;;;;;;;;;;2613892;54;21201;-74
2024/01/18 11:48:38;;;;;;;16.03;12.33;;;;;;;;;;2612745;54;20371;-74
2024/01/18 11:54:10;;;;;;;13.80;10.63;;;;;;;;;;2613385;39;20805;-73
2024/01/18 11:59:45;;;;;;;15.07;7.20;;;;;;;;;;2612735;54;20407;-76
2024/01/18 12:05:16;;;;;;;6.37;5.77;;;;;;;;;;2614149;54;20495;-77
2024/01/18 12:10:46;;;;;;;5.97;5.37;;;;;;;;;;2612920;54;21006;-73
2024/01/18 12:16:19;;;;;;;5.60;5.10;;;;;;;;;;2612075;54;20910;-75
2024/01/18 12:21:49;;;;;;;6.13;4.87;;;;;;;;;;2612786;54;20391;-80
2024/01/18 12:27:21;;;;;;;5.13;4.50;;;;;;;;;;2613728;54;21276;-78
2024/01/18 12:32:51;;;;;;;6.03;3.87;;;;;;;;;;2613802;39;20425;-80
2024/01/18 12:38:21;;;;;;;4.20;3.43;;;;;;;;;;2614347;54;20599;-79
2024/01/18 12:43:51;;;;;;;5.97;4.10;;;;;;;;;;2613234;54;20415;-78
2024/01/18 12:49:21;;;;;;;3.60;3.30;;;;;;;;;;2614709;54;20366;-78
2024/01/18 12:54:50;;;;;;;14.37;4.40;;;;;;;;;;2612527;54;20398;-77
2024/01/18 13:00:20;;;;;;;8.13;4.27;;;;;;;;;;2613256;54;20499;-79
2024/01/18 13:05:50;;;;;;;4.43;4.03;;;;;;;;;;2614148;39;20752;-73
2024/01/18 13:11:21;;;;;;;7.30;3.30;;;;;;;;;;2613108;54;20707;-72
2024/01/18 13:16:53;;;;;;;6.30;3.20;;;;;;;;;;2613385;54;20403;-74
2024/01/18 13:22:23;;;;;;;6.67;4.37;;;;;;;;;;2613603;54;20385;-78
2024/01/18 13:27:53;;;;;;;5.37;3.77;;;;;;;;;;2614337;54;21008;-78
2024/01/18 13:39:32;;;;;;;3.93;2.67;;;;;;;;;;2614236;54;20418;-76
2024/01/18 13:45:03;;;;;;;4.20;2.83;;;;;;;;;;2611215;54;20532;-78
2024/01/18 13:50:33;;;;;;;4.23;2.83;;;;;;;;;;2613831;54;20385;-75
2024/01/18 13:53:18;;;;;;;2.70;2.40;;;;;;;;;;2613216;54;20407;-75
2024/01/18 13:55:45;;;;;;;5.60;3.10;;;;;;;;;;2612842;47;20431;-75
2024/01/18 13:58:30;;;;;;;4.50;3.13;;;;;;;;;;2613183;54;20389;-74
2024/01/18 14:00:56;;;;;;;5.17;3.20;;;;;;;;;;2613348;54;20427;-75
2024/01/18 14:06:25;;;;;;;9.20;5.10;;;;;;;;;;2613182;54;20431;-75
2024/01/18 14:11:57;;;;;;;3.83;3.23;;;;;;;;;;2613690;54;20412;-74
2024/01/18 14:17:27;;;;;;;4.60;3.30;;;;;;;;;;2613365;54;20389;-75
2024/01/18 14:22:56;;;;;;;3.73;2.97;;;;;;;;;;2613738;54;20357;-74
2024/01/18 14:28:27;;;;;;;3.73;2.63;;;;;;;;;;2613636;39;21069;-75
2024/01/18 14:40:06;;;;;;;6.07;2.93;;;;;;;;;;2613142;54;20922;-80
2024/01/18 14:45:38;;;;;;;6.60;3.03;;;;;;;;;;2612368;54;20508;-75
2024/01/18 14:51:08;;;;;;;8.63;4.60;;;;;;;;;;2612809;54;20935;-74
2024/01/18 14:56:45;;;;;;;5.90;3.43;;;;;;;;;;2614384;54;20354;-74
2024/01/18 15:02:15;;;;;;;11.50;3.50;;;;;;;;;;2613306;54;20361;-78
2024/01/18 15:07:45;;;;;;;6.83;2.97;;;;;;;;;;2613435;54;20491;-75
2024/01/18 15:13:18;;;;;;;6.50;5.90;;;;;;;;;;2614528;54;20379;-78
2024/01/18 15:18:47;;;;;;;8.30;4.97;;;;;;;;;;2613416;54;20374;-77
2024/01/18 15:24:19;;;;;;;7.17;4.80;;;;;;;;;;2614215;54;20403;-74
2024/01/18 15:29:49;;;;;;;4.50;3.40;;;;;;;;;;2614726;54;21011;-73
2024/01/18 15:35:19;;;;;;;7.60;4.70;;;;;;;;;;2615021;54;20455;-77
2024/01/18 15:40:49;;;;;;;7.30;3.90;;;;;;;;;;2615102;39;20731;-77
2024/01/18 15:46:25;;;;;;;5.67;4.00;;;;;;;;;;2614153;54;20442;-76
2024/01/18 15:52:15;;;;;;;6.77;3.30;;;;;;;;;;2612061;54;20411;-73
2024/01/18 15:57:50;;;;;;;5.97;4.63;;;;;;;;;;2611754;54;20391;-74
2024/01/18 16:03:22;;;;;;;7.17;5.13;;;;;;;;;;2612997;54;20370;-77
2024/01/18 16:08:51;;;;;;;10.53;6.30;;;;;;;;;;2614163;54;20350;-77
2024/01/18 16:11:36;;;;;;;7.70;5.70;;;;;;;;;;2612733;54;20444;-75
2024/01/18 16:14:07;;;;;;;7.33;4.80;;;;;;;;;;2609734;54;20538;-73
2024/01/18 16:19:36;;;;;;;7.93;5.37;;;;;;;;;;2611998;54;20494;-73
2024/01/18 16:25:06;;;;;;;7.57;5.77;;;;;;;;;;2613833;54;20366;-73
2024/01/18 16:30:36;;;;;;;10.00;7.53;;;;;;;;;;2612357;54;20365;-72
2024/01/18 16:33:16;;;;;;;13.87;7.27;;;;;;;;;;2610393;54;20423;-75
2024/01/18 16:35:42;;;;;;;11.53;6.53;;;;;;;;;;2611641;47;20407;-74
2024/01/18 16:41:12;;;;;;;9.63;6.77;;;;;;;;;;2613327;54;20412;-73
2024/01/18 16:46:44;;;;;;;8.03;6.83;;;;;;;;;;2613511;39;20853;-76
2024/01/18 16:52:19;;;;;;;16.40;9.97;;;;;;;;;;2613687;54;20379;-76
2024/01/18 16:57:48;;;;;;;19.70;7.80;;;;;;;;;;2611929;54;20391;-72
2024/01/18 17:03:19;;;;;;;15.10;7.53;;;;;;;;;;2613619;39;21011;-73
2024/01/18 17:08:48;;;;;;;11.00;7.90;;;;;;;;;;2613565;54;20466;-74
2024/01/18 17:14:18;;;;;;;7.50;5.90;;;;;;;;;;2613023;54;20407;-73
2024/01/18 17:19:48;;;;;;;9.20;7.27;;;;;;;;;;2613251;54;20415;-76
2024/01/18 17:25:18;;;;;;;16.20;8.60;;;;;;;;;;2614595;54;20373;-78
2024/01/18 17:30:48;;;;;;;9.67;6.97;;;;;;;;;;2613706;54;20371;-79
2024/01/18 17:39:58;;;;;;;10.03;7.70;;;;;;;;;;2614175;54;21130;-76
2024/01/18 17:45:35;;;;;;;11.07;8.73;;;;;;;;;;2614513;54;20406;-77
2024/01/18 17:51:09;;;;;;;8.17;7.00;;;;;;;;;;2613434;54;20955;-78
2024/01/18 17:56:45;;;;;;;10.20;8.50;;;;;;;;;;2613702;39;20773;-77
2024/01/18 18:02:19;;;;;;;13.33;8.57;;;;;;;;;;2613587;54;20334;-78
2024/01/18 18:07:53;;;;;;;12.17;9.87;;;;;;;;;;2614595;54;20394;-77
2024/01/18 18:13:23;;;;;;;23.53;9.73;;;;;;;;;;2614244;54;20371;-73
2024/01/18 18:18:53;;;;;;;16.57;9.57;;;;;;;;;;2612378;54;20400;-74
2024/01/18 18:24:22;;;;;;;10.60;8.00;;;;;;;;;;2613145;39;20769;-75
2024/01/18 18:29:52;;;;;;;9.97;8.73;;;;;;;;;;2612086;54;20387;-73
2024/01/18 18:35:22;;;;;;;8.97;7.80;;;;;;;;;;2613042;54;20409;-73
2024/01/18 18:40:52;;;;;;;10.17;9.10;;;;;;;;;;2612403;54;20374;-73
2024/01/18 18:46:24;;;;;;;11.47;9.20;;;;;;;;;;2613194;54;20351;-73
2024/01/18 18:51:53;;;;;;;22.63;14.90;;;;;;;;;;2612715;54;20362;-73
2024/01/18 18:57:23;;;;;;;22.63;14.57;;;;;;;;;;2612314;54;20388;-73
2024/01/18 19:02:53;;;;;;;17.27;11.60;;;;;;;;;;2614108;54;20409;-72
2024/01/18 19:08:23;;;;;;;17.10;12.03;;;;;;;;;;2612716;54;20604;-73
2024/01/18 19:13:59;;;;;;;17.20;12.27;;;;;;;;;;2612537;54;20412;-74
2024/01/18 19:19:28;;;;;;;14.87;9.30;;;;;;;;;;2613467;39;20912;-72
2024/01/18 19:25:01;;;;;;;17.93;10.30;;;;;;;;;;2612453;39;20720;-76
2024/01/18 19:30:30;;;;;;;12.10;9.33;;;;;;;;;;2612776;54;20354;-78
2024/01/18 19:42:07;;;;;;;12.33;9.43;;;;;;;;;;2613145;54;20385;-77
2024/01/18 19:47:37;;;;;;;11.57;10.30;;;;;;;;;;2613619;54;20423;-76
2024/01/18 19:53:09;;;;;;;14.37;10.03;;;;;;;;;;2614048;54;20369;-79
2024/01/18 19:58:39;;;;;;;14.30;10.40;;;;;;;;;;2613345;54;20397;-77
2024/01/18 20:04:08;;;;;;;16.90;12.20;;;;;;;;;;2612870;39;20751;-78
2024/01/18 20:09:44;;;;;;;17.50;12.47;;;;;;;;;;2614300;54;20391;-77
2024/01/18 20:15:13;;;;;;;13.20;9.73;;;;;;;;;;2613244;54;20375;-78
2024/01/18 20:20:43;;;;;;;12.20;9.70;;;;;;;;;;2613191;54;20415;-78
2024/01/18 20:26:15;;;;;;;14.30;10.10;;;;;;;;;;2614398;54;20931;-78
2024/01/18 20:31:47;;;;;;;13.60;9.60;;;;;;;;;;2614136;54;20429;-78
2024/01/18 20:37:17;;;;;;;11.03;9.93;;;;;;;;;;2613813;54;20438;-79
2024/01/18 20:42:46;;;;;;;15.23;11.70;;;;;;;;;;2615217;54;20426;-77
2024/01/18 20:48:16;;;;;;;18.93;12.03;;;;;;;;;;2614217;54;20402;-79
2024/01/18 20:53:46;;;;;;;29.10;16.37;;;;;;;;;;2614589;54;20917;-78
2024/01/18 20:59:16;;;;;;;24.20;16.13;;;;;;;;;;2614486;54;20390;-77
2024/01/18 21:04:48;;;;;;;20.03;13.73;;;;;;;;;;2613655;54;20403;-77
2024/01/18 21:10:18;;;;;;;55.40;33.00;;;;;;;;;;2611836;54;20389;-77
2024/01/18 21:15:51;;;;;;;38.87;20.97;;;;;;;;;;2614437;54;20412;-76
2024/01/18 21:21:20;;;;;;;14.97;12.13;;;;;;;;;;2611605;54;20383;-75
2024/01/18 21:26:50;;;;;;;10.77;8.73;;;;;;;;;;2613092;54;20350;-77
2024/01/18 21:32:22;;;;;;;13.40;10.50;;;;;;;;;;2611941;54;20382;-77
2024/01/18 21:41:33;;;;;;;13.93;9.37;;;;;;;;;;2611793;54;20442;-77
2024/01/18 21:47:05;;;;;;;17.30;10.60;;;;;;;;;;2615238;54;20386;-79
2024/01/18 21:52:35;;;;;;;14.00;9.83;;;;;;;;;;2613836;39;20774;-77
2024/01/18 21:58:07;;;;;;;16.27;11.43;;;;;;;;;;2614428;54;20425;-78
2024/01/18 22:03:41;;;;;;;16.80;12.57;;;;;;;;;;2613367;54;20382;-77
2024/01/18 22:06:26;;;;;;;18.80;12.93;;;;;;;;;;2614015;54;20452;-78
2024/01/18 22:08:52;;;;;;;17.53;11.80;;;;;;;;;;2612778;54;20997;-78
2024/01/18 22:14:22;;;;;;;17.67;11.43;;;;;;;;;;2614235;54;20393;-77
2024/01/18 22:19:52;;;;;;;17.00;11.40;;;;;;;;;;2614361;54;20406;-78
2024/01/18 22:25:21;;;;;;;23.43;15.03;;;;;;;;;;2613389;39;20782;-79
2024/01/18 22:30:54;;;;;;;24.63;14.13;;;;;;;;;;2613522;54;20366;-77
2024/01/18 22:36:23;;;;;;;19.23;14.07;;;;;;;;;;2613516;54;20979;-77
2024/01/18 22:41:53;;;;;;;20.17;16.23;;;;;;;;;;2613357;54;20366;-78
2024/01/18 22:47:27;;;;;;;26.80;15.20;;;;;;;;;;2614222;54;20459;-78
2024/01/18 22:52:57;;;;;;;17.50;11.43;;;;;;;;;;2613020;54;20387;-77
2024/01/18 22:58:28;;;;;;;29.93;15.97;;;;;;;;;;2614849;31;20950;-77
2024/01/18 23:03:57;;;;;;;21.07;12.13;;;;;;;;;;2614614;39;20787;-79
2024/01/18 23:09:27;;;;;;;19.10;12.60;;;;;;;;;;2613750;39;20778;-78
2024/01/18 23:14:57;;;;;;;18.20;12.87;;;;;;;;;;2613936;54;20403;-79
2024/01/18 23:20:29;;;;;;;24.70;15.47;;;;;;;;;;2613211;39;20583;-78
2024/01/18 23:25:59;;;;;;;21.50;13.90;;;;;;;;;;2613482;54;20371;-76
2024/01/18 23:31:29;;;;;;;16.53;13.77;;;;;;;;;;2613839;54;20390;-78
2024/01/18 23:37:01;;;;;;;19.97;14.57;;;;;;;;;;2614145;54;20401;-79
2024/01/18 23:42:31;;;;;;;17.77;14.27;;;;;;;;;;2614642;54;20403;-80
2024/01/18 23:48:01;;;;;;;23.40;14.03;;;;;;;;;;2614243;54;20386;-77
2024/01/18 23:53:38;;;;;;;17.60;14.10;;;;;;;;;;2614687;54;20591;-77
2024/01/18 23:59:14;;;;;;;21.60;16.63;;;;;;;;;;2614160;54;21003;-76
